Terminal Aerodrome Forecast
Issued by NWS

Home | Current Version | Previous Version | Graphics & Text | Print | Product List | Glossary On
Versions: 1 2 3 4 5 6 7 8 9 10 11 12 13 14 15 16 17 18 19
000
FTUS43 KABR 012300
TAFMBG
TAF
KMBG 012339Z 0200/0224 33012KT P6SM BKN040 OVC050
     FM020200 VRB04KT P6SM SKC
     FM020900 14010KT P6SM SCT250
     FM021200 15016G24KT P6SM BKN250=

USA.gov is the U.S. government's official web portal to all federal, state and local government web resources and services.